Time;durP1;ratioP1;P1;durP2;ratioP2;P2;SDS_P1;SDS_P2;PMS_P1;PMS_P2;Temp;Humidity;BMP_temperature;BMP_pressure;BME280_temperature;BME280_humidity;BME280_pressure;Samples;Min_cycle;Max_cycle;Signal;HPM_P1;HPM_P2
2023/09/01 00:01:31;;;;;;;23.38;13.68;;;;;;;;;;5048467;28;20025;-62
2023/09/01 00:03:56;;;;;;;22.17;14.50;;;;;;;;;;5050848;28;20036;-62
2023/09/01 00:06:22;;;;;;;22.20;14.10;;;;;;;;;;5050916;28;20040;-62
2023/09/01 00:08:47;;;;;;;25.52;14.48;;;;;;;;;;5048078;28;20056;-62
2023/09/01 00:11:13;;;;;;;25.45;14.35;;;;;;;;;;5049910;28;20102;-61
2023/09/01 00:13:39;;;;;;;25.70;14.10;;;;;;;;;;5042557;28;20029;-62
2023/09/01 00:16:04;;;;;;;20.80;13.18;;;;;;;;;;5041017;28;20044;-62
2023/09/01 00:18:30;;;;;;;18.50;13.13;;;;;;;;;;5041335;28;20041;-62
2023/09/01 00:20:59;;;;;;;19.60;13.20;;;;;;;;;;5048160;28;20024;-61
2023/09/01 00:23:25;;;;;;;20.15;12.68;;;;;;;;;;5049334;28;20461;-62
2023/09/01 00:25:55;;;;;;;21.85;13.02;;;;;;;;;;5048853;28;20079;-62
2023/09/01 00:28:20;;;;;;;21.02;13.15;;;;;;;;;;5040896;28;20091;-62
2023/09/01 00:30:57;;;;;;;24.95;13.77;;;;;;;;;;5036199;28;20037;-62
2023/09/01 00:33:27;;;;;;;25.02;14.93;;;;;;;;;;5050010;28;20040;-61
2023/09/01 00:35:53;;;;;;;25.10;15.25;;;;;;;;;;5038331;28;20115;-62
2023/09/01 00:38:19;;;;;;;22.08;13.48;;;;;;;;;;5050720;28;20041;-62
2023/09/01 00:40:48;;;;;;;23.13;12.95;;;;;;;;;;5033112;28;20095;-62
2023/09/01 00:43:14;;;;;;;23.80;13.00;;;;;;;;;;5029514;28;20030;-61
2023/09/01 00:45:40;;;;;;;22.52;12.27;;;;;;;;;;5035755;28;20028;-61
2023/09/01 00:48:07;;;;;;;22.13;12.35;;;;;;;;;;5037747;28;20029;-62
2023/09/01 00:50:35;;;;;;;24.60;13.63;;;;;;;;;;5048030;28;20515;-61
2023/09/01 00:53:01;;;;;;;27.52;14.43;;;;;;;;;;5030889;28;20041;-62
2023/09/01 00:55:27;;;;;;;22.45;12.75;;;;;;;;;;5044230;28;20064;-62
2023/09/01 00:57:53;;;;;;;22.83;12.80;;;;;;;;;;5050937;28;20090;-61
2023/09/01 01:00:19;;;;;;;22.42;11.93;;;;;;;;;;5038036;28;20034;-61
2023/09/01 01:02:46;;;;;;;23.45;12.52;;;;;;;;;;5031201;28;20417;-62
2023/09/01 01:05:15;;;;;;;20.90;12.48;;;;;;;;;;5044211;28;20021;-61
2023/09/01 01:07:58;;;;;;;21.50;12.43;;;;;;;;;;5035838;28;20133;-62
2023/09/01 01:10:37;;;;;;;20.13;12.65;;;;;;;;;;5049147;28;20037;-62
2023/09/01 01:13:08;;;;;;;22.35;12.80;;;;;;;;;;5053438;28;20377;-63
2023/09/01 01:15:35;;;;;;;25.63;13.63;;;;;;;;;;5051572;28;20092;-61
2023/09/01 01:18:04;;;;;;;24.15;13.02;;;;;;;;;;5045389;28;20033;-62
2023/09/01 01:20:46;;;;;;;19.58;12.52;;;;;;;;;;5038280;28;20029;-62
2023/09/01 01:23:16;;;;;;;23.08;12.35;;;;;;;;;;5044731;28;20033;-61
2023/09/01 01:25:47;;;;;;;20.30;12.48;;;;;;;;;;5052625;28;20527;-62
2023/09/01 01:28:12;;;;;;;22.10;11.40;;;;;;;;;;5035937;28;20074;-61
2023/09/01 01:30:38;;;;;;;22.65;10.85;;;;;;;;;;5038625;28;20119;-62
2023/09/01 01:33:04;;;;;;;19.33;11.35;;;;;;;;;;5053057;28;20033;-62
2023/09/01 01:35:42;;;;;;;18.77;11.20;;;;;;;;;;5052546;28;20029;-62
2023/09/01 01:38:15;;;;;;;17.05;10.68;;;;;;;;;;5054701;28;20465;-62
2023/09/01 01:40:43;;;;;;;22.17;11.20;;;;;;;;;;5050072;28;20108;-61
2023/09/01 01:43:11;;;;;;;19.23;11.05;;;;;;;;;;5051797;28;20064;-62
2023/09/01 01:45:42;;;;;;;20.90;10.70;;;;;;;;;;5049775;28;20677;-62
2023/09/01 01:48:10;;;;;;;21.80;10.65;;;;;;;;;;5051016;28;20108;-62
2023/09/01 01:50:35;;;;;;;18.50;9.98;;;;;;;;;;5052286;28;20032;-63
2023/09/01 01:53:01;;;;;;;18.42;10.65;;;;;;;;;;5048371;28;20125;-62
2023/09/01 01:55:26;;;;;;;19.40;10.70;;;;;;;;;;5037321;28;20029;-62
2023/09/01 01:57:52;;;;;;;17.63;10.43;;;;;;;;;;5040310;28;20041;-62
2023/09/01 02:00:19;;;;;;;17.98;9.57;;;;;;;;;;5035593;28;20088;-60
2023/09/01 02:02:44;;;;;;;18.80;9.38;;;;;;;;;;5033366;28;20441;-62
2023/09/01 02:05:10;;;;;;;18.77;9.43;;;;;;;;;;5035639;28;20053;-62
2023/09/01 02:07:35;;;;;;;14.65;9.00;;;;;;;;;;5053334;28;20044;-61
2023/09/01 02:10:05;;;;;;;15.18;8.68;;;;;;;;;;5051343;28;20035;-62
2023/09/01 02:12:34;;;;;;;17.52;9.25;;;;;;;;;;5043203;28;20539;-61
2023/09/01 02:15:03;;;;;;;14.60;9.00;;;;;;;;;;5044962;28;20046;-61
2023/09/01 02:17:29;;;;;;;18.98;8.77;;;;;;;;;;5047800;28;20033;-61
2023/09/01 02:19:56;;;;;;;17.23;9.35;;;;;;;;;;5052858;28;20040;-61
2023/09/01 02:22:22;;;;;;;15.45;9.15;;;;;;;;;;5036155;28;20351;-61
2023/09/01 02:24:47;;;;;;;20.48;9.70;;;;;;;;;;5038570;28;20331;-61
2023/09/01 02:27:13;;;;;;;22.10;10.25;;;;;;;;;;5050177;28;20040;-61
2023/09/01 02:29:38;;;;;;;20.80;10.02;;;;;;;;;;5052236;28;20192;-61
2023/09/01 02:32:04;;;;;;;19.75;9.68;;;;;;;;;;5049643;28;20055;-62
2023/09/01 02:34:29;;;;;;;24.00;10.20;;;;;;;;;;5049432;28;20033;-61
2023/09/01 02:36:54;;;;;;;16.20;9.73;;;;;;;;;;5052442;28;20120;-61
2023/09/01 02:39:20;;;;;;;16.50;9.73;;;;;;;;;;5050643;28;20041;-61
2023/09/01 02:41:45;;;;;;;18.15;9.18;;;;;;;;;;5041480;28;20033;-62
2023/09/01 02:44:11;;;;;;;18.98;9.73;;;;;;;;;;5035776;28;20025;-61
2023/09/01 02:46:36;;;;;;;17.60;9.55;;;;;;;;;;5049665;28;20036;-62
2023/09/01 02:49:02;;;;;;;15.65;9.30;;;;;;;;;;5053054;28;20061;-62
2023/09/01 02:51:27;;;;;;;24.02;9.85;;;;;;;;;;5036473;28;20034;-62
2023/09/01 02:53:52;;;;;;;20.77;10.13;;;;;;;;;;5047691;28;20045;-61
2023/09/01 02:56:18;;;;;;;23.13;10.40;;;;;;;;;;5051712;28;20036;-62
2023/09/01 02:58:47;;;;;;;15.77;9.55;;;;;;;;;;5050352;28;20389;-62
2023/09/01 03:01:13;;;;;;;19.63;10.23;;;;;;;;;;5050517;28;20029;-61
2023/09/01 03:03:40;;;;;;;25.20;10.13;;;;;;;;;;5039520;28;20053;-61
2023/09/01 03:06:08;;;;;;;22.45;10.70;;;;;;;;;;5035204;28;20032;-61
2023/09/01 03:08:34;;;;;;;19.67;10.55;;;;;;;;;;5046557;28;20091;-61
2023/09/01 03:11:00;;;;;;;16.95;10.50;;;;;;;;;;5051743;28;20033;-61
2023/09/01 03:13:25;;;;;;;19.85;10.43;;;;;;;;;;5051793;28;20059;-60
2023/09/01 03:15:53;;;;;;;19.80;10.20;;;;;;;;;;5050301;28;20076;-61
2023/09/01 03:18:18;;;;;;;21.45;10.35;;;;;;;;;;5051371;28;20040;-62
2023/09/01 03:20:44;;;;;;;17.40;10.43;;;;;;;;;;5044791;28;20535;-62
2023/09/01 03:23:09;;;;;;;18.63;9.98;;;;;;;;;;5045662;28;20111;-62
2023/09/01 03:25:35;;;;;;;23.10;10.43;;;;;;;;;;5049573;28;20111;-61
2023/09/01 03:28:00;;;;;;;17.33;9.77;;;;;;;;;;5051826;28;20033;-61
2023/09/01 03:30:25;;;;;;;20.55;9.95;;;;;;;;;;5042625;28;20399;-61
2023/09/01 03:32:52;;;;;;;16.77;9.68;;;;;;;;;;5049835;28;20040;-61
2023/09/01 03:35:17;;;;;;;22.20;9.82;;;;;;;;;;5049532;28;20461;-61
2023/09/01 03:37:43;;;;;;;17.17;9.60;;;;;;;;;;5040122;28;20131;-61
2023/09/01 03:40:09;;;;;;;16.05;9.73;;;;;;;;;;5043392;28;20351;-62
2023/09/01 03:42:36;;;;;;;16.50;9.45;;;;;;;;;;5043812;28;20044;-62
2023/09/01 03:45:02;;;;;;;14.95;10.15;;;;;;;;;;5050633;28;20036;-63
2023/09/01 03:47:27;;;;;;;18.38;9.45;;;;;;;;;;5046822;28;20028;-63
2023/09/01 03:49:53;;;;;;;16.23;9.40;;;;;;;;;;5032371;28;20462;-62
2023/09/01 03:52:18;;;;;;;16.80;9.20;;;;;;;;;;5033245;28;20029;-61
2023/09/01 03:54:43;;;;;;;16.55;9.80;;;;;;;;;;5047019;28;20255;-61
2023/09/01 03:57:09;;;;;;;17.77;9.82;;;;;;;;;;5029965;28;20114;-62
2023/09/01 03:59:34;;;;;;;21.27;10.13;;;;;;;;;;5033683;28;20033;-62
2023/09/01 04:02:00;;;;;;;18.92;9.30;;;;;;;;;;5046941;28;20029;-62
2023/09/01 04:04:25;;;;;;;17.98;9.50;;;;;;;;;;5037363;28;20446;-61
2023/09/01 04:06:50;;;;;;;18.58;9.82;;;;;;;;;;5049088;28;20044;-62
2023/09/01 04:09:16;;;;;;;14.55;9.10;;;;;;;;;;5048730;28;20029;-62
2023/09/01 04:11:41;;;;;;;17.60;9.88;;;;;;;;;;5050486;28;20472;-63
2023/09/01 04:14:09;;;;;;;17.27;9.13;;;;;;;;;;5047810;28;20036;-61
2023/09/01 04:16:34;;;;;;;15.27;9.13;;;;;;;;;;5045788;28;20056;-62
2023/09/01 04:19:00;;;;;;;19.02;9.52;;;;;;;;;;5046530;28;20025;-61
2023/09/01 04:21:25;;;;;;;19.23;9.68;;;;;;;;;;5047356;28;20037;-61
2023/09/01 04:23:51;;;;;;;21.02;9.65;;;;;;;;;;5048506;28;20212;-61
2023/09/01 04:26:16;;;;;;;15.75;9.55;;;;;;;;;;5049713;28;20025;-61
2023/09/01 04:28:41;;;;;;;19.95;8.95;;;;;;;;;;5049082;28;20327;-61
2023/09/01 04:31:20;;;;;;;19.27;9.80;;;;;;;;;;5045585;28;20057;-61
2023/09/01 04:33:45;;;;;;;14.77;9.55;;;;;;;;;;5047693;28;20047;-61
2023/09/01 04:36:11;;;;;;;17.75;9.45;;;;;;;;;;5051501;28;20108;-62
2023/09/01 04:38:36;;;;;;;17.05;9.25;;;;;;;;;;5048663;28;20053;-62
2023/09/01 04:41:01;;;;;;;21.17;9.25;;;;;;;;;;5050169;28;20385;-61
2023/09/01 04:43:27;;;;;;;15.60;9.38;;;;;;;;;;5035102;28;20051;-61
2023/09/01 04:45:57;;;;;;;16.92;9.45;;;;;;;;;;5049619;28;20032;-62
2023/09/01 04:48:23;;;;;;;17.40;9.05;;;;;;;;;;5047184;28;20583;-62
2023/09/01 04:50:48;;;;;;;22.48;9.90;;;;;;;;;;5047877;28;20622;-62
2023/09/01 04:53:14;;;;;;;15.82;9.23;;;;;;;;;;5053205;28;20044;-62
2023/09/01 04:55:40;;;;;;;17.17;9.30;;;;;;;;;;5054407;28;20033;-63
2023/09/01 04:58:06;;;;;;;18.08;9.07;;;;;;;;;;5046809;28;20037;-62
2023/09/01 05:00:31;;;;;;;14.80;8.63;;;;;;;;;;5033883;28;20040;-61
2023/09/01 05:02:57;;;;;;;19.40;9.52;;;;;;;;;;5039149;28;20029;-62
2023/09/01 05:05:22;;;;;;;16.77;9.50;;;;;;;;;;5050596;28;20108;-61
2023/09/01 05:07:48;;;;;;;14.07;9.68;;;;;;;;;;5032837;28;20116;-61
2023/09/01 05:10:13;;;;;;;15.25;9.73;;;;;;;;;;5039240;28;20492;-62
2023/09/01 05:12:38;;;;;;;18.42;9.25;;;;;;;;;;5038085;28;20466;-62
2023/09/01 05:15:05;;;;;;;16.88;10.02;;;;;;;;;;5039113;28;20052;-62
2023/09/01 05:17:30;;;;;;;17.02;10.00;;;;;;;;;;5051736;28;20029;-61
2023/09/01 05:19:57;;;;;;;17.95;9.35;;;;;;;;;;5050781;28;20103;-62
2023/09/01 05:22:26;;;;;;;15.13;9.57;;;;;;;;;;5054439;28;20061;-61
2023/09/01 05:24:53;;;;;;;16.50;9.82;;;;;;;;;;5052660;28;20033;-62
2023/09/01 05:27:19;;;;;;;18.25;10.60;;;;;;;;;;5054387;28;20029;-62
2023/09/01 05:29:48;;;;;;;19.70;10.20;;;;;;;;;;5053615;28;20032;-61
2023/09/01 05:32:15;;;;;;;20.40;10.75;;;;;;;;;;5054897;28;20029;-62
2023/09/01 05:34:41;;;;;;;18.42;10.15;;;;;;;;;;5055061;28;20457;-61
2023/09/01 05:37:08;;;;;;;19.80;10.52;;;;;;;;;;5041213;28;20035;-63
2023/09/01 05:39:35;;;;;;;17.50;10.50;;;;;;;;;;5033209;28;20025;-62
2023/09/01 05:42:00;;;;;;;14.88;10.13;;;;;;;;;;5034587;28;20040;-61
2023/09/01 05:44:25;;;;;;;17.67;10.35;;;;;;;;;;5054175;28;20444;-62
2023/09/01 05:46:51;;;;;;;18.10;10.23;;;;;;;;;;5053214;28;20054;-62
2023/09/01 05:49:16;;;;;;;17.90;11.27;;;;;;;;;;5054656;28;20074;-63
2023/09/01 05:51:41;;;;;;;17.20;10.68;;;;;;;;;;5053498;28;20029;-62
2023/09/01 05:54:07;;;;;;;18.92;11.00;;;;;;;;;;5054303;28;20124;-63
2023/09/01 05:56:32;;;;;;;18.25;10.80;;;;;;;;;;5050142;28;21925;-62
2023/09/01 05:58:58;;;;;;;17.27;10.45;;;;;;;;;;5054065;28;20473;-63
2023/09/01 06:01:23;;;;;;;14.85;10.02;;;;;;;;;;5053725;28;20025;-62
2023/09/01 06:03:49;;;;;;;17.40;10.77;;;;;;;;;;5033068;28;20065;-63
2023/09/01 06:06:14;;;;;;;19.25;10.98;;;;;;;;;;5033058;28;20037;-64
2023/09/01 06:08:39;;;;;;;15.55;9.90;;;;;;;;;;5033022;28;20022;-63
2023/09/01 06:11:09;;;;;;;20.02;11.02;;;;;;;;;;5045035;28;20043;-63
2023/09/01 06:13:35;;;;;;;17.35;10.55;;;;;;;;;;5053023;28;20039;-63
2023/09/01 06:16:04;;;;;;;19.15;10.68;;;;;;;;;;5051873;28;20041;-63
2023/09/01 06:18:30;;;;;;;16.02;9.85;;;;;;;;;;5052217;28;20025;-63
2023/09/01 06:20:55;;;;;;;16.55;10.05;;;;;;;;;;5052737;28;20462;-65
2023/09/01 06:23:21;;;;;;;16.85;10.55;;;;;;;;;;5052278;28;20086;-63
2023/09/01 06:25:46;;;;;;;18.05;10.68;;;;;;;;;;5031530;28;20033;-63
2023/09/01 06:28:12;;;;;;;20.67;10.65;;;;;;;;;;5033611;28;20057;-63
2023/09/01 06:30:39;;;;;;;19.65;11.45;;;;;;;;;;5032587;28;20446;-61
2023/09/01 06:33:05;;;;;;;20.92;12.05;;;;;;;;;;5033621;28;20037;-62
2023/09/01 06:35:30;;;;;;;21.83;12.30;;;;;;;;;;5034985;28;20524;-62
2023/09/01 06:37:56;;;;;;;23.88;12.48;;;;;;;;;;5051120;28;20043;-62
2023/09/01 06:40:21;;;;;;;19.33;11.25;;;;;;;;;;5053425;28;20082;-63
2023/09/01 06:42:46;;;;;;;16.98;10.85;;;;;;;;;;5051662;28;20025;-62
2023/09/01 06:45:12;;;;;;;16.15;10.30;;;;;;;;;;5053283;28;20029;-64
2023/09/01 06:47:37;;;;;;;16.17;10.40;;;;;;;;;;5052252;28;20070;-63
2023/09/01 06:50:03;;;;;;;14.65;9.80;;;;;;;;;;5053359;28;20458;-63
2023/09/01 06:52:28;;;;;;;13.52;9.27;;;;;;;;;;5052618;28;20028;-64
2023/09/01 06:54:54;;;;;;;18.70;8.77;;;;;;;;;;5051590;28;20033;-62
2023/09/01 06:57:19;;;;;;;16.60;8.90;;;;;;;;;;5052011;28;20380;-63
2023/09/01 06:59:45;;;;;;;13.60;8.52;;;;;;;;;;5051930;28;20041;-61
2023/09/01 07:02:10;;;;;;;15.57;8.63;;;;;;;;;;5052699;28;20119;-63
2023/09/01 07:04:35;;;;;;;14.20;8.57;;;;;;;;;;5052450;28;20029;-63
2023/09/01 07:07:01;;;;;;;11.63;7.60;;;;;;;;;;5052499;28;20104;-64
2023/09/01 07:09:26;;;;;;;11.18;7.40;;;;;;;;;;5050990;28;20071;-63
2023/09/01 07:11:52;;;;;;;16.20;7.50;;;;;;;;;;5038646;28;20025;-64
2023/09/01 07:14:17;;;;;;;14.35;7.60;;;;;;;;;;5033825;28;20466;-63
2023/09/01 07:16:43;;;;;;;12.55;6.82;;;;;;;;;;5042208;28;20036;-63
2023/09/01 07:19:08;;;;;;;12.70;7.28;;;;;;;;;;5032879;28;20049;-64
2023/09/01 07:21:33;;;;;;;12.07;7.20;;;;;;;;;;5040411;28;20087;-63
2023/09/01 07:23:59;;;;;;;10.82;7.32;;;;;;;;;;5032045;28;20041;-63
2023/09/01 07:26:24;;;;;;;10.98;7.20;;;;;;;;;;5044609;28;20037;-64
2023/09/01 07:28:49;;;;;;;16.10;7.18;;;;;;;;;;5051869;28;20461;-63
2023/09/01 07:31:15;;;;;;;12.15;8.07;;;;;;;;;;5041397;28;20029;-64
2023/09/01 07:33:43;;;;;;;10.85;7.13;;;;;;;;;;5031377;28;20478;-62
2023/09/01 07:36:10;;;;;;;11.77;7.43;;;;;;;;;;5042545;28;20533;-64
2023/09/01 07:38:39;;;;;;;13.20;7.05;;;;;;;;;;5038020;28;20116;-64
2023/09/01 07:41:05;;;;;;;9.63;7.00;;;;;;;;;;5051733;28;20033;-64
2023/09/01 07:43:31;;;;;;;12.80;7.40;;;;;;;;;;5051745;28;20025;-64
2023/09/01 07:45:59;;;;;;;10.38;6.70;;;;;;;;;;5050981;28;20354;-66
2023/09/01 07:48:25;;;;;;;12.20;7.00;;;;;;;;;;5052076;28;20033;-65
2023/09/01 07:50:50;;;;;;;10.18;7.07;;;;;;;;;;5049769;28;20044;-65
2023/09/01 07:53:15;;;;;;;12.60;6.60;;;;;;;;;;5037259;28;20033;-64
2023/09/01 07:55:41;;;;;;;11.40;6.60;;;;;;;;;;5036298;28;20029;-63
2023/09/01 07:58:06;;;;;;;11.65;7.15;;;;;;;;;;5051436;28;20041;-63
2023/09/01 08:00:32;;;;;;;10.27;6.13;;;;;;;;;;5036682;28;20034;-64
2023/09/01 08:02:57;;;;;;;12.57;6.55;;;;;;;;;;5031041;28;20686;-65
2023/09/01 08:05:23;;;;;;;9.45;6.15;;;;;;;;;;5032103;28;20022;-64
2023/09/01 08:07:51;;;;;;;11.32;6.20;;;;;;;;;;5032894;28;20033;-64
2023/09/01 08:10:17;;;;;;;8.55;6.18;;;;;;;;;;5032037;28;20436;-63
2023/09/01 08:12:42;;;;;;;12.70;6.57;;;;;;;;;;5041581;28;20029;-63
2023/09/01 08:15:08;;;;;;;11.27;6.10;;;;;;;;;;5051310;28;20493;-65
2023/09/01 08:17:35;;;;;;;13.30;6.00;;;;;;;;;;5051403;28;20045;-64
2023/09/01 08:20:03;;;;;;;14.27;7.50;;;;;;;;;;5050546;28;20028;-64
2023/09/01 08:22:28;;;;;;;10.13;5.85;;;;;;;;;;5051728;28;20441;-65
2023/09/01 08:24:54;;;;;;;10.27;6.18;;;;;;;;;;5049619;28;20155;-65
2023/09/01 08:27:19;;;;;;;10.38;6.57;;;;;;;;;;5049587;28;20036;-65
2023/09/01 08:29:45;;;;;;;14.10;6.90;;;;;;;;;;5049471;28;20040;-65
2023/09/01 08:32:11;;;;;;;8.63;5.80;;;;;;;;;;5043638;28;20477;-63
2023/09/01 08:34:37;;;;;;;8.98;5.60;;;;;;;;;;5034566;28;20041;-63
2023/09/01 08:37:03;;;;;;;9.18;6.13;;;;;;;;;;5050759;28;20037;-62
2023/09/01 08:39:28;;;;;;;8.55;5.55;;;;;;;;;;5050767;28;20029;-62
2023/09/01 08:41:54;;;;;;;8.75;6.15;;;;;;;;;;5030697;28;20029;-61
2023/09/01 08:44:23;;;;;;;11.07;5.57;;;;;;;;;;5031011;28;20389;-60
2023/09/01 08:46:51;;;;;;;10.35;5.63;;;;;;;;;;5031020;28;20110;-62
2023/09/01 08:49:17;;;;;;;8.65;5.80;;;;;;;;;;5046344;28;20029;-61
2023/09/01 08:51:47;;;;;;;7.70;5.35;;;;;;;;;;5048443;28;20029;-62
2023/09/01 08:54:18;;;;;;;8.75;5.15;;;;;;;;;;5048127;28;20041;-61
2023/09/01 08:56:44;;;;;;;7.45;4.60;;;;;;;;;;5050632;28;20037;-62
2023/09/01 08:59:09;;;;;;;16.42;6.50;;;;;;;;;;5050478;28;20056;-61
2023/09/01 09:01:37;;;;;;;16.10;6.47;;;;;;;;;;5051256;28;20344;-60
2023/09/01 09:04:03;;;;;;;9.90;4.97;;;;;;;;;;5049174;28;20518;-61
2023/09/01 09:06:32;;;;;;;8.45;4.47;;;;;;;;;;5050667;28;20465;-60
2023/09/01 09:09:11;;;;;;;9.80;5.20;;;;;;;;;;5049301;28;20037;-60
2023/09/01 09:11:41;;;;;;;7.05;4.40;;;;;;;;;;5051367;28;20040;-60
2023/09/01 09:14:15;;;;;;;8.85;4.72;;;;;;;;;;5047655;28;20047;-61
2023/09/01 09:16:57;;;;;;;8.77;4.78;;;;;;;;;;5051387;28;20059;-61
2023/09/01 09:19:24;;;;;;;9.88;4.75;;;;;;;;;;5044195;28;20030;-61
2023/09/01 09:22:04;;;;;;;8.45;4.78;;;;;;;;;;5065939;28;20040;-61
2023/09/01 09:24:35;;;;;;;7.15;4.60;;;;;;;;;;5051022;28;20389;-61
2023/09/01 09:27:00;;;;;;;8.43;4.82;;;;;;;;;;5049692;28;20485;-61
2023/09/01 09:29:25;;;;;;;8.35;4.55;;;;;;;;;;5050346;28;20033;-61
2023/09/01 09:31:51;;;;;;;6.25;4.55;;;;;;;;;;5041262;28;20044;-61
2023/09/01 09:34:18;;;;;;;9.45;5.20;;;;;;;;;;5054078;28;20048;-61
2023/09/01 09:36:45;;;;;;;7.45;4.80;;;;;;;;;;5054172;28;20033;-62
2023/09/01 09:39:41;;;;;;;9.52;5.45;;;;;;;;;;5054451;28;20040;-61
2023/09/01 09:42:09;;;;;;;10.73;6.18;;;;;;;;;;5019571;28;20053;-61
2023/09/01 09:44:35;;;;;;;13.32;6.20;;;;;;;;;;5053719;28;20133;-61
2023/09/01 09:47:10;;;;;;;9.65;6.03;;;;;;;;;;5049943;28;20496;-61
2023/09/01 09:49:38;;;;;;;8.02;6.28;;;;;;;;;;5044939;28;20101;-61
2023/09/01 09:52:08;;;;;;;10.98;6.45;;;;;;;;;;5033605;28;20036;-61
2023/09/01 09:54:43;;;;;;;12.35;6.28;;;;;;;;;;5040726;28;20033;-61
2023/09/01 09:57:14;;;;;;;11.85;5.97;;;;;;;;;;5040022;28;20044;-61
2023/09/01 09:59:53;;;;;;;10.10;5.45;;;;;;;;;;5052465;28;20499;-61
2023/09/01 10:02:30;;;;;;;8.60;5.63;;;;;;;;;;5053850;28;20032;-61
2023/09/01 10:04:58;;;;;;;9.27;5.20;;;;;;;;;;5051874;28;20470;-61
2023/09/01 10:07:24;;;;;;;7.45;4.90;;;;;;;;;;5045001;28;20116;-60
2023/09/01 10:09:50;;;;;;;6.88;4.72;;;;;;;;;;5052766;28;20033;-59
2023/09/01 10:12:16;;;;;;;8.90;5.07;;;;;;;;;;5052778;28;20107;-60
2023/09/01 10:14:43;;;;;;;11.32;5.10;;;;;;;;;;5053481;28;20076;-60
2023/09/01 10:17:10;;;;;;;8.52;4.97;;;;;;;;;;5052908;28;20075;-60
2023/09/01 10:19:35;;;;;;;9.38;4.38;;;;;;;;;;5053837;28;20033;-59
2023/09/01 10:22:00;;;;;;;7.70;4.80;;;;;;;;;;5052740;28;20040;-60
2023/09/01 10:24:26;;;;;;;8.73;5.10;;;;;;;;;;5050107;28;20052;-60
2023/09/01 10:27:10;;;;;;;9.20;5.15;;;;;;;;;;5031358;28;20117;-60
2023/09/01 10:29:35;;;;;;;8.23;5.32;;;;;;;;;;5033349;28;20131;-60
2023/09/01 10:32:17;;;;;;;12.85;5.70;;;;;;;;;;5032860;28;20450;-61
2023/09/01 10:34:53;;;;;;;9.77;5.95;;;;;;;;;;5045340;28;20029;-60
2023/09/01 10:37:32;;;;;;;9.90;5.70;;;;;;;;;;5052269;28;20037;-61
2023/09/01 10:39:58;;;;;;;9.98;5.80;;;;;;;;;;5052456;28;20037;-64
2023/09/01 10:42:48;;;;;;;12.02;5.50;;;;;;;;;;5051399;28;20028;-64
2023/09/01 10:45:14;;;;;;;9.15;5.97;;;;;;;;;;5052033;28;20102;-63
2023/09/01 10:47:45;;;;;;;11.60;6.25;;;;;;;;;;5034238;28;20065;-65
2023/09/01 10:50:12;;;;;;;11.38;6.60;;;;;;;;;;5031331;28;20038;-64
2023/09/01 10:52:38;;;;;;;11.70;6.30;;;;;;;;;;5040846;28;20076;-64
2023/09/01 10:55:05;;;;;;;10.63;6.15;;;;;;;;;;5032698;28;20068;-65
2023/09/01 10:57:43;;;;;;;11.60;6.10;;;;;;;;;;5031532;28;20034;-65
2023/09/01 11:00:43;;;;;;;10.40;6.70;;;;;;;;;;5032248;28;20028;-64
2023/09/01 11:03:29;;;;;;;9.50;6.43;;;;;;;;;;4989850;28;20053;-63
2023/09/01 11:06:00;;;;;;;10.07;6.35;;;;;;;;;;5035866;28;20044;-64
2023/09/01 11:08:25;;;;;;;9.82;6.65;;;;;;;;;;5052182;28;20108;-66
2023/09/01 11:10:58;;;;;;;13.98;6.10;;;;;;;;;;5060809;28;20528;-63
2023/09/01 11:13:25;;;;;;;13.07;6.45;;;;;;;;;;5048011;28;20390;-63
2023/09/01 11:15:51;;;;;;;9.18;5.97;;;;;;;;;;5032931;28;20382;-63
2023/09/01 11:18:21;;;;;;;11.13;5.60;;;;;;;;;;5032925;28;20485;-64
2023/09/01 11:20:48;;;;;;;8.68;5.10;;;;;;;;;;5049079;28;20036;-63
2023/09/01 11:23:23;;;;;;;7.85;4.97;;;;;;;;;;5051825;28;20029;-63
2023/09/01 11:25:58;;;;;;;9.18;5.05;;;;;;;;;;5052080;28;20036;-63
2023/09/01 11:28:25;;;;;;;7.43;4.90;;;;;;;;;;5052258;28;20051;-64
2023/09/01 11:30:59;;;;;;;7.88;5.28;;;;;;;;;;5046655;28;20032;-62
2023/09/01 11:33:25;;;;;;;8.30;5.00;;;;;;;;;;5048677;28;20527;-63
2023/09/01 11:36:07;;;;;;;5.47;4.10;;;;;;;;;;5051749;28;20029;-62
2023/09/01 11:38:34;;;;;;;4.95;3.42;;;;;;;;;;5046606;28;20041;-63
2023/09/01 11:41:04;;;;;;;6.38;3.53;;;;;;;;;;5035287;28;20075;-63
2023/09/01 11:43:29;;;;;;;5.38;3.60;;;;;;;;;;5050677;28;20025;-63
2023/09/01 11:45:55;;;;;;;6.03;3.80;;;;;;;;;;5051232;28;20032;-63
2023/09/01 11:48:25;;;;;;;6.15;4.00;;;;;;;;;;5042810;28;20036;-63
2023/09/01 11:50:57;;;;;;;5.15;3.78;;;;;;;;;;5051188;28;20029;-63
2023/09/01 11:53:29;;;;;;;6.07;3.60;;;;;;;;;;5051990;28;20051;-64
2023/09/01 11:56:01;;;;;;;4.28;3.15;;;;;;;;;;5050340;28;20362;-64
2023/09/01 11:58:32;;;;;;;4.88;3.10;;;;;;;;;;5049665;28;20118;-63
2023/09/01 12:01:10;;;;;;;6.20;3.58;;;;;;;;;;5047363;28;20033;-63
2023/09/01 12:03:37;;;;;;;5.20;3.40;;;;;;;;;;5043197;28;20036;-62
2023/09/01 12:06:16;;;;;;;5.35;3.50;;;;;;;;;;5051013;28;20055;-62
2023/09/01 12:08:42;;;;;;;6.00;3.53;;;;;;;;;;5051565;28;20104;-61
2023/09/01 12:11:07;;;;;;;6.30;3.53;;;;;;;;;;5050705;28;20061;-61
2023/09/01 12:13:33;;;;;;;4.25;2.90;;;;;;;;;;5051834;28;20064;-61
2023/09/01 12:16:00;;;;;;;7.75;3.28;;;;;;;;;;5050105;28;20471;-61
2023/09/01 12:18:30;;;;;;;4.53;3.10;;;;;;;;;;5038834;28;20042;-60
2023/09/01 12:20:56;;;;;;;4.90;3.50;;;;;;;;;;5030566;28;20462;-61
2023/09/01 12:23:46;;;;;;;4.95;3.17;;;;;;;;;;5036154;28;20033;-60
2023/09/01 12:26:16;;;;;;;5.40;3.63;;;;;;;;;;5042987;28;20049;-61
2023/09/01 12:28:42;;;;;;;6.30;4.10;;;;;;;;;;5050953;28;20028;-60
2023/09/01 12:31:10;;;;;;;5.20;4.03;;;;;;;;;;5033215;28;20044;-60
2023/09/01 12:33:36;;;;;;;5.93;3.90;;;;;;;;;;5042369;28;20048;-60
2023/09/01 12:36:03;;;;;;;5.82;3.60;;;;;;;;;;5040805;28;20033;-60
2023/09/01 12:38:28;;;;;;;6.25;3.10;;;;;;;;;;5031726;28;20032;-61
2023/09/01 12:40:55;;;;;;;5.43;3.47;;;;;;;;;;5031115;28;20026;-61
2023/09/01 12:43:20;;;;;;;5.32;3.30;;;;;;;;;;5031295;28;20095;-61
2023/09/01 12:45:46;;;;;;;5.18;3.40;;;;;;;;;;5031710;28;20405;-61
2023/09/01 12:48:14;;;;;;;3.97;3.00;;;;;;;;;;5030635;28;20037;-60
2023/09/01 12:50:46;;;;;;;5.90;3.20;;;;;;;;;;5035707;28;20025;-60
2023/09/01 12:53:13;;;;;;;5.03;3.08;;;;;;;;;;5030773;28;20081;-60
2023/09/01 12:55:38;;;;;;;4.40;2.88;;;;;;;;;;5037151;28;20029;-60
2023/09/01 12:58:04;;;;;;;3.78;2.47;;;;;;;;;;5049252;28;20405;-60
2023/09/01 13:00:29;;;;;;;3.85;2.88;;;;;;;;;;5051402;28;20025;-60
2023/09/01 13:02:55;;;;;;;4.40;2.88;;;;;;;;;;5034085;28;20091;-60
2023/09/01 13:05:21;;;;;;;4.03;2.88;;;;;;;;;;5066116;28;20116;-60
2023/09/01 13:07:49;;;;;;;6.63;3.65;;;;;;;;;;5053057;28;20029;-60
2023/09/01 13:10:15;;;;;;;4.88;3.15;;;;;;;;;;5035358;28;20163;-60
2023/09/01 13:12:42;;;;;;;4.93;3.60;;;;;;;;;;5035187;28;20033;-60
2023/09/01 13:15:08;;;;;;;5.47;3.60;;;;;;;;;;5041376;28;20072;-60
2023/09/01 13:17:33;;;;;;;5.93;3.50;;;;;;;;;;5054707;28;20389;-60
2023/09/01 13:19:59;;;;;;;5.40;3.53;;;;;;;;;;5053991;28;20021;-60
2023/09/01 13:22:26;;;;;;;4.60;3.40;;;;;;;;;;5054612;28;20028;-60
2023/09/01 13:24:52;;;;;;;6.72;3.40;;;;;;;;;;5053681;28;20033;-60
2023/09/01 13:27:17;;;;;;;5.07;3.58;;;;;;;;;;5053824;28;20116;-60
2023/09/01 13:29:42;;;;;;;5.80;3.28;;;;;;;;;;5053487;28;20029;-60
2023/09/01 13:32:08;;;;;;;5.10;4.00;;;;;;;;;;5053946;28;20066;-60
2023/09/01 13:34:33;;;;;;;4.75;3.65;;;;;;;;;;5051132;28;20044;-60
2023/09/01 13:36:59;;;;;;;5.38;3.70;;;;;;;;;;5033705;28;20048;-60
2023/09/01 13:39:24;;;;;;;5.47;3.78;;;;;;;;;;5035689;28;20035;-59
2023/09/01 13:41:49;;;;;;;3.85;3.10;;;;;;;;;;5054129;28;20048;-60
2023/09/01 13:44:15;;;;;;;6.30;4.10;;;;;;;;;;5053436;28;20469;-59
2023/09/01 13:46:41;;;;;;;5.13;3.50;;;;;;;;;;5053546;28;20039;-63
2023/09/01 13:49:08;;;;;;;5.72;3.65;;;;;;;;;;5041207;28;20025;-62
2023/09/01 13:51:34;;;;;;;5.53;3.78;;;;;;;;;;5053104;28;20071;-61
2023/09/01 13:53:59;;;;;;;7.38;4.68;;;;;;;;;;5053540;28;20059;-63
2023/09/01 13:56:25;;;;;;;6.40;4.63;;;;;;;;;;5034861;28;20029;-62
2023/09/01 13:58:50;;;;;;;4.97;3.67;;;;;;;;;;5047492;28;20025;-61
2023/09/01 14:01:16;;;;;;;5.63;3.53;;;;;;;;;;5042025;28;20033;-61
2023/09/01 14:03:42;;;;;;;5.28;4.20;;;;;;;;;;5046555;28;20029;-62
2023/09/01 14:06:09;;;;;;;6.57;4.75;;;;;;;;;;5033080;28;20030;-61
2023/09/01 14:08:35;;;;;;;5.53;4.50;;;;;;;;;;5059917;28;20071;-61
2023/09/01 14:11:01;;;;;;;5.80;4.60;;;;;;;;;;5052964;28;20029;-63
2023/09/01 14:13:28;;;;;;;8.68;4.80;;;;;;;;;;5054173;28;20542;-61
2023/09/01 14:15:56;;;;;;;6.53;5.25;;;;;;;;;;5046389;28;20075;-61
2023/09/01 14:18:22;;;;;;;7.72;5.82;;;;;;;;;;5052404;28;20068;-62
2023/09/01 14:20:52;;;;;;;6.10;5.07;;;;;;;;;;5052667;28;20025;-62
2023/09/01 14:23:22;;;;;;;5.18;4.10;;;;;;;;;;5033876;28;20033;-62
2023/09/01 14:25:51;;;;;;;5.35;4.50;;;;;;;;;;5033949;28;20068;-62
2023/09/01 14:28:17;;;;;;;5.20;4.53;;;;;;;;;;5032977;28;20029;-63
2023/09/01 14:30:43;;;;;;;7.07;4.85;;;;;;;;;;5033091;28;20052;-61
2023/09/01 14:33:09;;;;;;;6.47;5.00;;;;;;;;;;5048122;28;20090;-61